QTR1N OTHH-EIDW
Flight info
| Callsign | QTR1N |
|---|---|
| Flight time | N/A |
| Altitude | 28000 |
| Route | DATRI L564 BAT/N0520F290 L564 MIGMA/N0511F280 M628 AMBAG/N0505F340 M321 KSA T503 ORSAL/N0492F360 T503 OVANO L768 FIRAS R655 KTN R785 NIKAS L619 VESAR UN135 IMR UN127 RIKSO DCT DISOR DCT LONTA UL608 DOLEV DCT GORPA/N0487F380 DCT DOL DCT EVAXI DCT MODSA DCT BABEG DCT LIRSU DCT ARCKY DCT SPI DCT DENUT L610 KOPUL Q60 OKSAW DCT TEWXI DCT LANON L18 ABLIN |
| Aircraft | B77W/H-SDE1E2E3FGHIJ2J3J4J5M1RWXY/LB1D1 |
Departure
| Time | N/A |
|---|---|
| Airport | Hamad International Airport (OTHH) |
Arrival
| Time | 2026-04-30 19:06 |
|---|---|
| Airport | Dublin Airport (EIDW) |
| Time | Latitude | Longitude | Altitude | Speed | Heading |
|---|---|---|---|---|---|
| 2026-04-30 18:53 | 53.08336 | -5.83352 | 18788 ft | 416 kts | 295° |
| 2026-04-30 18:54 | 53.09740 | -5.87569 | 17949 ft | 411 kts | 295° |
| 2026-04-30 18:54 | 53.10928 | -5.91144 | 17303 ft | 410 kts | 295° |
| 2026-04-30 18:54 | 53.11847 | -5.93912 | 16791 ft | 408 kts | 295° |
| 2026-04-30 18:54 | 53.12770 | -5.96697 | 16317 ft | 406 kts | 295° |
| 2026-04-30 18:55 | 53.14041 | -6.00537 | 15713 ft | 401 kts | 295° |
| 2026-04-30 18:55 | 53.16698 | -6.08578 | 14356 ft | 391 kts | 295° |
| 2026-04-30 18:55 | 53.18008 | -6.12554 | 13705 ft | 387 kts | 295° |
| 2026-04-30 18:56 | 53.20554 | -6.20301 | 12322 ft | 381 kts | 295° |
| 2026-04-30 18:56 | 53.21825 | -6.24178 | 11670 ft | 377 kts | 295° |
| 2026-04-30 18:56 | 53.23084 | -6.28026 | 11012 ft | 373 kts | 295° |
| 2026-04-30 18:57 | 53.25544 | -6.35559 | 9754 ft | 365 kts | 296° |
| 2026-04-30 18:57 | 53.26755 | -6.39276 | 9129 ft | 362 kts | 296° |
| 2026-04-30 18:57 | 53.27945 | -6.42934 | 8507 ft | 358 kts | 296° |
| 2026-04-30 18:58 | 53.30286 | -6.50149 | 7276 ft | 351 kts | 296° |
| 2026-04-30 18:58 | 53.31444 | -6.53728 | 6675 ft | 348 kts | 296° |
| 2026-04-30 18:58 | 53.32581 | -6.57243 | 6064 ft | 345 kts | 296° |
| 2026-04-30 18:59 | 53.34859 | -6.64125 | 4916 ft | 331 kts | 305° |
| 2026-04-30 19:00 | 53.39507 | -6.68404 | 3980 ft | 294 kts | 358° |
| 2026-04-30 19:00 | 53.41376 | -6.68487 | 3803 ft | 276 kts | 11° |
| 2026-04-30 19:00 | 53.44449 | -6.65566 | 3503 ft | 237 kts | 61° |
| 2026-04-30 19:01 | 53.45358 | -6.60839 | 3426 ft | 197 kts | 92° |
| 2026-04-30 19:01 | 53.45349 | -6.58599 | 3392 ft | 182 kts | 98° |
| 2026-04-30 19:02 | 53.45192 | -6.55405 | 3112 ft | 170 kts | 101° |
| 2026-04-30 19:02 | 53.44981 | -6.51504 | 2978 ft | 169 kts | 100° |
| 2026-04-30 19:03 | 53.44772 | -6.47562 | 2537 ft | 168 kts | 100° |
| 2026-04-30 19:03 | 53.44566 | -6.43729 | 2108 ft | 167 kts | 100° |
| 2026-04-30 19:04 | 53.44376 | -6.40169 | 1699 ft | 141 kts | 101° |
| 2026-04-30 19:04 | 53.44206 | -6.37052 | 1353 ft | 132 kts | 99° |
| 2026-04-30 19:05 | 53.44055 | -6.34260 | 1017 ft | 135 kts | 99° |
| 2026-04-30 19:05 | 53.43892 | -6.31279 | 652 ft | 135 kts | 97° |
| 2026-04-30 19:06 | 53.43715 | -6.28065 | 301 ft | 138 kts | 96° |
| 2026-04-30 19:06 | 53.43632 | -6.26538 | 258 ft | 113 kts | 97° |
| 2026-04-30 19:06 | 53.43513 | -6.25181 | 258 ft | 27 kts | 119° |
| 2026-04-30 19:07 | 53.43395 | -6.24964 | 258 ft | 8 kts | 244° |
| 2026-04-30 19:07 | 53.43386 | -6.25142 | 258 ft | 20 kts | 274° |
| 2026-04-30 19:08 | 53.43407 | -6.25592 | 258 ft | 16 kts | 255° |
| 2026-04-30 19:08 | 53.43146 | -6.25497 | 258 ft | 29 kts | 158° |
| 2026-04-30 19:08 | 53.42943 | -6.25354 | 258 ft | 28 kts | 156° |
| 2026-04-30 19:09 | 53.42648 | -6.25067 | 258 ft | 22 kts | 154° |
| 2026-04-30 19:09 | 53.42505 | -6.24965 | 258 ft | 22 kts | 159° |
| 2026-04-30 19:09 | 53.42373 | -6.24857 | 258 ft | 17 kts | 126° |
| 2026-04-30 19:10 | 53.42516 | -6.24643 | 258 ft | 6 kts | 21° |
| 2026-04-30 19:10 | 53.42527 | -6.24636 | 258 ft | 0 kts | 21° |